createdAt,value
2017-11-26T00:00:51.987Z,88.39
2017-11-26T00:03:21.087Z,88.35
2017-11-26T00:05:50.114Z,88.44
2017-11-26T00:08:20.230Z,88.77
2017-11-26T00:10:49.475Z,88.51
2017-11-26T00:15:53.954Z,89.56
2017-11-26T00:18:23.177Z,89.79
2017-11-26T00:20:52.244Z,89.94
2017-11-26T00:23:21.286Z,90.02
2017-11-26T00:25:50.327Z,90.19
2017-11-26T00:28:19.371Z,90.05
2017-11-26T00:30:48.410Z,90.66
2017-11-26T00:33:17.475Z,90.68
2017-11-26T00:35:46.517Z,90.80
2017-11-26T00:40:50.731Z,90.63
2017-11-26T00:43:19.800Z,90.21
2017-11-26T00:45:48.841Z,90.07
2017-11-26T00:48:17.880Z,90.26
2017-11-26T00:50:46.919Z,90.21
2017-11-26T00:53:15.961Z,90.37
2017-11-26T00:55:45.018Z,90.66
2017-11-26T00:58:16.096Z,90.83
2017-11-26T01:00:45.120Z,90.85
2017-11-26T01:05:51.347Z,90.65
2017-11-26T01:08:21.338Z,91.03
2017-11-26T01:10:50.364Z,90.77
2017-11-26T01:13:20.537Z,90.63
2017-11-26T01:15:49.596Z,90.62
2017-11-26T01:18:23.608Z,89.93
2017-11-26T01:20:52.764Z,89.82
2017-11-26T01:23:21.818Z,89.83
2017-11-26T01:25:50.906Z,89.89
2017-11-26T01:28:21.937Z,89.97
2017-11-26T01:30:50.971Z,89.84
2017-11-26T01:33:20.103Z,89.25
2017-11-26T01:35:50.178Z,89.18
2017-11-26T01:38:19.219Z,89.25
2017-11-26T01:40:57.475Z,89.75
2017-11-26T01:44:48.476Z,89.40
2017-11-26T01:47:18.641Z,89.68
2017-11-26T01:49:49.709Z,89.95
2017-11-26T01:52:21.839Z,89.92
2017-11-26T01:54:51.067Z,89.37
2017-11-26T01:57:20.055Z,89.66
2017-11-26T01:59:50.118Z,89.91
2017-11-26T02:02:20.123Z,89.94
2017-11-26T02:04:50.152Z,90.51
2017-11-26T02:07:19.219Z,90.42
2017-11-26T02:09:49.240Z,90.20
2017-11-26T02:12:21.307Z,90.29
2017-11-26T02:14:50.622Z,90.09
2017-11-26T02:17:23.075Z,89.83
2017-11-26T02:19:52.131Z,89.99
2017-11-26T02:22:21.163Z,90.47
2017-11-26T02:24:50.207Z,90.46
2017-11-26T02:27:20.196Z,90.78
2017-11-26T02:30:00.684Z,90.87
2017-11-26T02:32:47.179Z,90.69
2017-11-26T02:35:38.851Z,90.66
2017-11-26T02:38:07.940Z,90.91
2017-11-26T02:40:37.004Z,90.65
2017-11-26T02:43:06.070Z,90.39
2017-11-26T02:45:35.184Z,90.43
2017-11-26T02:48:04.218Z,90.04
2017-11-26T02:50:34.188Z,89.98
2017-11-26T02:53:04.123Z,90.17
2017-11-26T02:55:35.203Z,90.41
2017-11-26T02:58:04.251Z,90.37
2017-11-26T03:00:33.351Z,90.18
2017-11-26T03:03:02.423Z,90.22
2017-11-26T03:05:31.475Z,90.60
2017-11-26T03:08:00.515Z,90.62
2017-11-26T03:10:30.574Z,90.80
2017-11-26T03:12:59.654Z,90.78
2017-11-26T03:18:05.055Z,91.42
2017-11-26T03:20:37.815Z,91.42
2017-11-26T03:23:06.880Z,91.56
2017-11-26T03:25:35.951Z,91.40
2017-11-26T03:28:04.982Z,91.22
2017-11-26T03:30:35.035Z,91.35
2017-11-26T03:33:04.083Z,91.67
2017-11-26T03:35:33.139Z,91.37
2017-11-26T03:38:02.182Z,90.81
2017-11-26T03:40:31.220Z,90.35
2017-11-26T03:43:00.293Z,90.62
2017-11-26T03:45:29.329Z,90.91
2017-11-26T03:47:58.363Z,91.23
2017-11-26T03:50:27.414Z,90.81
2017-11-26T03:52:56.489Z,90.69
2017-11-26T03:55:25.542Z,90.42
2017-11-26T03:57:59.314Z,90.54
2017-11-26T04:00:28.352Z,89.36
2017-11-26T04:02:59.363Z,88.76
2017-11-26T04:05:28.455Z,89.22
2017-11-26T04:07:57.498Z,88.08
2017-11-26T04:10:26.608Z,88.26
2017-11-26T04:15:32.405Z,88.66
2017-11-26T04:18:06.255Z,88.53
2017-11-26T04:20:35.297Z,88.46
2017-11-26T04:23:05.248Z,88.37
2017-11-26T04:25:34.308Z,88.04
2017-11-26T04:30:39.132Z,88.06
2017-11-26T04:33:12.077Z,88.61
2017-11-26T04:35:41.120Z,88.99
2017-11-26T04:38:11.102Z,89.47
2017-11-26T04:40:48.609Z,89.54
2017-11-26T04:43:17.645Z,89.80
2017-11-26T04:45:46.770Z,89.39
2017-11-26T04:48:15.811Z,88.58
2017-11-26T04:50:45.990Z,88.73
2017-11-26T04:53:15.023Z,88.69
2017-11-26T04:55:46.083Z,88.83
2017-11-26T04:58:15.127Z,88.87
2017-11-26T05:03:24.669Z,89.60
2017-11-26T05:08:36.003Z,89.80
2017-11-26T05:13:47.687Z,89.79
2017-11-26T05:16:16.724Z,88.71
2017-11-26T05:18:46.740Z,87.13
2017-11-26T05:21:20.561Z,86.48
2017-11-26T05:26:27.202Z,85.74
2017-11-26T05:28:58.191Z,84.13
2017-11-26T05:31:27.265Z,83.76
2017-11-26T05:33:56.329Z,83.95
2017-11-26T05:36:25.353Z,82.82
2017-11-26T05:38:54.405Z,83.09
2017-11-26T05:44:03.290Z,83.27
2017-11-26T05:51:44.509Z,83.82
2017-11-26T05:54:13.540Z,83.73
2017-11-26T05:56:42.605Z,84.07
2017-11-26T05:59:11.654Z,84.57
2017-11-26T06:01:40.699Z,85.17
2017-11-26T06:04:13.847Z,86.00
2017-11-26T06:06:42.887Z,86.41
2017-11-26T06:09:13.887Z,86.50
2017-11-26T06:11:42.955Z,86.71
2017-11-26T06:14:13.009Z,86.64
2017-11-26T06:16:42.091Z,86.43
2017-11-26T06:19:11.129Z,87.02
2017-11-26T06:21:40.207Z,88.11
2017-11-26T06:24:10.238Z,88.42
2017-11-26T06:26:39.276Z,88.46
2017-11-26T06:29:08.311Z,88.50
2017-11-26T06:31:37.342Z,87.95
2017-11-26T06:34:07.320Z,87.75
2017-11-26T06:36:36.372Z,87.02
2017-11-26T06:39:05.434Z,86.23
2017-11-26T06:41:36.373Z,86.02
2017-11-26T06:46:41.218Z,85.58
2017-11-26T06:49:27.068Z,86.11
2017-11-26T06:51:56.177Z,85.44
2017-11-26T06:54:25.220Z,84.99
2017-11-26T06:57:01.875Z,84.16
2017-11-26T06:59:30.929Z,84.37
2017-11-26T07:01:59.976Z,84.31
2017-11-26T07:04:30.036Z,84.71
2017-11-26T07:07:03.211Z,84.05
2017-11-26T07:09:32.265Z,83.47
2017-11-26T07:12:03.232Z,83.72
2017-11-26T07:14:36.638Z,82.71
2017-11-26T07:17:05.683Z,83.56
2017-11-26T07:19:43.441Z,83.77
2017-11-26T07:22:12.482Z,83.44
2017-11-26T07:24:45.257Z,82.28
2017-11-26T07:27:14.324Z,81.72
2017-11-26T07:29:43.325Z,80.72
2017-11-26T07:32:12.399Z,81.05
2017-11-26T07:34:42.424Z,80.60
2017-11-26T07:37:11.467Z,79.75
2017-11-26T07:39:45.328Z,79.19
2017-11-26T07:42:14.381Z,80.35
2017-11-26T07:44:43.414Z,79.31
2017-11-26T07:47:12.489Z,79.79
2017-11-26T07:49:42.536Z,79.73
2017-11-26T07:52:11.662Z,79.24
2017-11-26T07:54:41.669Z,79.40
2017-11-26T07:57:10.715Z,79.55
2017-11-26T07:59:41.783Z,79.45
2017-11-26T08:02:10.810Z,78.81
2017-11-26T08:04:41.853Z,79.31
2017-11-26T08:07:10.927Z,79.05
2017-11-26T08:12:15.247Z,78.91
2017-11-26T08:14:44.296Z,78.58
2017-11-26T08:17:13.339Z,78.73
2017-11-26T08:19:43.303Z,77.23
2017-11-26T08:22:12.364Z,77.32
2017-11-26T08:24:41.409Z,77.85
2017-11-26T08:27:10.455Z,78.14
2017-11-26T08:29:39.495Z,78.36
2017-11-26T08:32:08.547Z,77.09
2017-11-26T08:37:19.894Z,76.98
2017-11-26T08:39:48.947Z,77.96
2017-11-26T08:45:00.466Z,77.93
2017-11-26T08:47:29.503Z,77.45
2017-11-26T08:50:00.563Z,77.72
2017-11-26T08:52:29.627Z,77.39
2017-11-26T08:54:58.669Z,76.50
2017-11-26T08:57:27.711Z,76.78
2017-11-26T09:02:42.906Z,76.80
2017-11-26T09:05:11.974Z,77.46
2017-11-26T09:07:41.055Z,76.61
2017-11-26T09:12:50.568Z,73.85
2017-11-26T09:15:21.624Z,74.26
2017-11-26T09:17:58.033Z,75.31
2017-11-26T09:20:27.051Z,74.59
2017-11-26T09:22:56.102Z,75.12
2017-11-26T09:25:26.032Z,75.13
2017-11-26T09:27:55.079Z,73.99
2017-11-26T09:30:24.122Z,74.19
2017-11-26T09:32:54.128Z,75.85
2017-11-26T09:35:23.172Z,74.89
2017-11-26T09:37:52.328Z,73.56
2017-11-26T09:40:22.372Z,75.05
2017-11-26T09:42:54.442Z,74.51
2017-11-26T09:45:24.424Z,74.48
2017-11-26T09:47:54.463Z,73.54
2017-11-26T09:53:01.128Z,73.89
2017-11-26T09:55:32.071Z,73.81
2017-11-26T09:58:01.288Z,73.26
2017-11-26T10:00:31.273Z,74.10
2017-11-26T10:03:00.414Z,72.33
2017-11-26T10:05:29.473Z,73.59
2017-11-26T10:07:58.524Z,72.75
2017-11-26T10:10:40.874Z,73.56
2017-11-26T10:13:10.043Z,74.57
2017-11-26T10:15:39.140Z,73.48
2017-11-26T10:18:08.224Z,74.77
2017-11-26T10:20:44.038Z,74.05
2017-11-26T10:23:14.241Z,75.86
2017-11-26T10:28:39.801Z,77.80
2017-11-26T10:31:08.876Z,76.45
2017-11-26T10:33:38.812Z,77.29
2017-11-26T10:36:08.870Z,78.63
2017-11-26T10:38:45.100Z,79.78
2017-11-26T10:41:14.223Z,79.87
2017-11-26T10:43:48.513Z,78.59
2017-11-26T10:46:22.186Z,77.41
2017-11-26T10:51:26.615Z,75.18
2017-11-26T10:53:56.597Z,74.57
2017-11-26T10:56:25.913Z,73.24
2017-11-26T10:58:55.002Z,72.34
2017-11-26T11:01:24.031Z,74.47
2017-11-26T11:04:12.319Z,71.23
2017-11-26T11:06:41.408Z,65.48
2017-11-26T11:09:14.111Z,64.92
2017-11-26T11:11:43.142Z,68.46
2017-11-26T11:14:12.215Z,68.87
2017-11-26T11:16:41.211Z,70.19
2017-11-26T11:19:11.232Z,69.88
2017-11-26T11:21:40.323Z,71.12
2017-11-26T11:24:11.279Z,71.27
2017-11-26T11:29:21.901Z,69.94
2017-11-26T11:31:52.961Z,72.43
2017-11-26T11:34:21.994Z,71.58
2017-11-26T11:36:53.100Z,71.18
2017-11-26T11:39:22.137Z,72.65
2017-11-26T11:41:51.270Z,72.45
2017-11-26T11:44:22.216Z,72.25
2017-11-26T11:46:52.273Z,73.95
2017-11-26T11:49:24.818Z,75.17
2017-11-26T11:51:54.031Z,76.64
2017-11-26T11:57:01.316Z,77.26
2017-11-26T11:59:31.369Z,75.47
2017-11-26T12:02:00.397Z,74.49
2017-11-26T12:04:29.471Z,72.92
2017-11-26T12:06:58.603Z,71.98
2017-11-26T12:09:27.645Z,71.58
2017-11-26T12:11:56.737Z,72.34
2017-11-26T12:14:25.777Z,69.77
2017-11-26T12:16:54.810Z,72.27
2017-11-26T12:19:23.835Z,72.68
2017-11-26T12:21:52.876Z,72.32
2017-11-26T12:24:26.428Z,74.22
2017-11-26T12:26:55.495Z,77.83
2017-11-26T12:29:24.533Z,78.97
2017-11-26T12:31:57.357Z,78.36
2017-11-26T12:34:26.383Z,75.71
2017-11-26T12:36:55.427Z,74.58
2017-11-26T12:39:25.426Z,74.69
2017-11-26T12:41:55.397Z,73.51
2017-11-26T12:44:24.422Z,74.38
2017-11-26T12:46:53.478Z,74.94
2017-11-26T12:49:36.124Z,72.40
2017-11-26T12:52:05.159Z,70.90
2017-11-26T12:54:38.209Z,70.38
2017-11-26T12:57:07.271Z,70.12
2017-11-26T13:02:30.492Z,69.46
2017-11-26T13:04:59.553Z,69.89
2017-11-26T13:07:28.599Z,69.94
2017-11-26T13:09:57.639Z,68.33
2017-11-26T13:12:26.686Z,70.64
2017-11-26T13:15:02.742Z,69.37
2017-11-26T13:17:31.770Z,69.11
2017-11-26T13:20:00.866Z,68.95
2017-11-26T13:22:29.868Z,69.31
2017-11-26T13:25:02.638Z,70.25
2017-11-26T13:27:31.668Z,69.47
2017-11-26T13:30:05.622Z,70.69
2017-11-26T13:32:34.691Z,71.35
2017-11-26T13:35:03.774Z,73.05
2017-11-26T13:37:32.834Z,72.55
2017-11-26T13:40:02.843Z,73.38
2017-11-26T13:42:31.884Z,73.54
2017-11-26T13:45:00.923Z,73.98
2017-11-26T13:47:29.958Z,74.90
2017-11-26T13:52:34.210Z,75.88
2017-11-26T13:55:05.255Z,76.02
2017-11-26T13:57:34.381Z,76.17
2017-11-26T14:00:05.392Z,76.50
2017-11-26T14:02:34.523Z,76.73
2017-11-26T14:07:41.323Z,77.50
2017-11-26T14:12:49.599Z,79.24
2017-11-26T14:15:18.704Z,79.51
2017-11-26T14:20:23.461Z,80.80
2017-11-26T14:25:27.741Z,81.31
2017-11-26T14:28:04.826Z,83.15
2017-11-26T14:30:33.919Z,84.46
2017-11-26T14:33:02.948Z,84.41
2017-11-26T14:35:31.979Z,83.50
2017-11-26T14:38:08.185Z,83.47
2017-11-26T14:40:37.601Z,83.54
2017-11-26T14:43:07.662Z,82.99
2017-11-26T14:45:36.694Z,83.27
2017-11-26T14:48:07.860Z,84.14
2017-11-26T14:50:37.333Z,84.08
2017-11-26T14:53:08.508Z,83.65
2017-11-26T14:55:38.337Z,87.59
2017-11-26T14:58:07.422Z,90.18
2017-11-26T15:00:36.458Z,90.46
2017-11-26T15:03:05.479Z,89.98
2017-11-26T15:05:34.530Z,89.93
2017-11-26T15:08:03.571Z,89.65
2017-11-26T15:10:32.765Z,88.80
2017-11-26T15:13:05.545Z,88.93
2017-11-26T15:15:34.610Z,88.95
2017-11-26T15:18:03.647Z,88.03
2017-11-26T15:20:32.690Z,87.22
2017-11-26T15:23:03.674Z,87.06
2017-11-26T15:25:32.791Z,85.61
2017-11-26T15:28:02.807Z,85.33
2017-11-26T15:30:31.852Z,84.49
2017-11-26T15:33:01.800Z,84.30
2017-11-26T15:35:30.857Z,83.12
2017-11-26T15:37:59.909Z,82.05
2017-11-26T15:40:28.942Z,81.85
2017-11-26T15:42:57.973Z,82.45
2017-11-26T15:45:27.030Z,81.42
2017-11-26T15:47:56.119Z,81.16
2017-11-26T15:50:25.150Z,81.58
2017-11-26T15:52:54.187Z,81.54
2017-11-26T15:55:23.246Z,81.32
2017-11-26T16:00:28.585Z,80.31
2017-11-26T16:02:57.599Z,80.64
2017-11-26T16:05:26.666Z,80.73
2017-11-26T16:07:56.690Z,80.46
2017-11-26T16:10:25.723Z,80.97
2017-11-26T16:12:54.803Z,80.64
2017-11-26T16:15:23.886Z,81.17
2017-11-26T16:17:52.964Z,80.81
2017-11-26T16:20:22.024Z,81.24
2017-11-26T16:22:51.081Z,80.90
2017-11-26T16:25:20.139Z,81.00
2017-11-26T16:27:49.325Z,80.56
2017-11-26T16:30:20.356Z,81.13
2017-11-26T16:32:51.671Z,80.98
2017-11-26T16:35:20.724Z,80.45
2017-11-26T16:37:49.784Z,81.69
2017-11-26T16:40:18.822Z,81.34
2017-11-26T16:42:47.857Z,81.79
2017-11-26T16:45:16.900Z,82.68
2017-11-26T16:47:46.922Z,83.49
2017-11-26T16:50:23.645Z,83.29
2017-11-26T16:52:52.755Z,83.95
2017-11-26T16:55:21.792Z,84.02
2017-11-26T16:57:50.839Z,85.04
2017-11-26T17:00:19.887Z,85.51
2017-11-26T17:02:48.931Z,85.43
2017-11-26T17:05:19.078Z,85.99
2017-11-26T17:07:48.125Z,85.19
2017-11-26T17:10:17.164Z,86.41
2017-11-26T17:12:48.092Z,87.71
2017-11-26T17:15:17.147Z,87.28
2017-11-26T17:17:46.189Z,87.61
2017-11-26T17:20:15.274Z,88.38
2017-11-26T17:22:45.203Z,88.69
2017-11-26T17:25:14.240Z,89.00
2017-11-26T17:27:43.276Z,86.82
2017-11-26T17:30:12.322Z,85.82
2017-11-26T17:32:41.907Z,84.67
2017-11-26T17:35:11.185Z,84.91
2017-11-26T17:37:40.227Z,84.72
2017-11-26T17:40:09.299Z,85.00
2017-11-26T17:42:38.376Z,85.11
2017-11-26T17:45:07.400Z,84.90
2017-11-26T17:47:36.457Z,85.28
2017-11-26T17:50:05.543Z,86.00
2017-11-26T17:52:34.656Z,85.94
2017-11-26T17:55:03.701Z,86.38
2017-11-26T17:57:32.824Z,84.70
2017-11-26T18:00:01.943Z,83.76
2017-11-26T18:02:30.971Z,82.26
2017-11-26T18:05:00.043Z,82.23
2017-11-26T18:07:29.075Z,82.12
2017-11-26T18:09:58.107Z,81.59
2017-11-26T18:12:27.164Z,81.88
2017-11-26T18:14:57.130Z,82.19
2017-11-26T18:17:26.158Z,81.96
2017-11-26T18:19:55.238Z,82.95
2017-11-26T18:22:24.277Z,82.71
2017-11-26T18:24:53.335Z,82.89
2017-11-26T18:27:22.363Z,83.39
2017-11-26T18:29:51.439Z,83.67
2017-11-26T18:32:20.491Z,84.49
2017-11-26T18:34:49.748Z,84.82
2017-11-26T18:37:18.779Z,84.92
2017-11-26T18:39:47.856Z,85.23
2017-11-26T18:42:16.892Z,84.85
2017-11-26T18:44:45.935Z,85.36
2017-11-26T18:47:16.022Z,85.81
2017-11-26T18:49:45.070Z,86.59
2017-11-26T18:52:15.153Z,86.87
2017-11-26T18:54:44.192Z,87.25
2017-11-26T18:57:13.245Z,87.59
2017-11-26T18:59:45.656Z,87.30
2017-11-26T19:02:15.625Z,87.93
2017-11-26T19:04:46.639Z,88.49
2017-11-26T19:07:15.674Z,88.54
2017-11-26T19:09:44.716Z,88.61
2017-11-26T19:12:13.756Z,88.14
2017-11-26T19:14:46.607Z,88.75
2017-11-26T19:17:15.648Z,89.26
2017-11-26T19:19:44.689Z,89.37
2017-11-26T19:22:13.725Z,88.94
2017-11-26T19:24:42.789Z,89.18
2017-11-26T19:27:15.706Z,89.32
2017-11-26T19:29:44.780Z,89.54
2017-11-26T19:32:14.048Z,89.16
2017-11-26T19:34:43.096Z,88.41
2017-11-26T19:37:12.140Z,88.70
2017-11-26T19:42:16.441Z,88.20
2017-11-26T19:44:45.472Z,88.82
2017-11-26T19:47:14.607Z,88.63
2017-11-26T19:49:43.635Z,88.61
2017-11-26T19:52:13.626Z,87.99
2017-11-26T19:54:42.686Z,87.60
2017-11-26T19:57:11.737Z,87.33
2017-11-26T19:59:40.795Z,87.18
2017-11-26T20:02:14.914Z,87.36
2017-11-26T20:04:44.140Z,87.05
2017-11-26T20:07:13.341Z,86.73
2017-11-26T20:09:44.396Z,87.35
2017-11-26T20:12:14.407Z,87.62
2017-11-26T20:14:43.536Z,87.33
2017-11-26T20:17:16.391Z,87.26
2017-11-26T20:19:45.448Z,88.25
2017-11-26T20:22:15.392Z,88.00
2017-11-26T20:24:44.450Z,87.57
2017-11-26T20:27:13.512Z,87.35
2017-11-26T20:29:43.536Z,87.90
2017-11-26T20:32:14.609Z,87.73
2017-11-26T20:34:43.679Z,86.92
2017-11-26T20:37:13.709Z,87.64
2017-11-26T20:39:42.759Z,87.71
2017-11-26T20:44:51.026Z,87.90
2017-11-26T20:47:20.049Z,88.22
2017-11-26T20:49:49.100Z,88.44
2017-11-26T20:52:18.247Z,88.41
2017-11-26T20:54:47.378Z,88.52
2017-11-26T20:57:18.395Z,88.13
2017-11-26T20:59:47.427Z,88.03
2017-11-26T21:02:16.531Z,88.16
2017-11-26T21:04:45.561Z,88.05
2017-11-26T21:07:14.599Z,87.77
2017-11-26T21:09:43.646Z,88.00
2017-11-26T21:12:12.805Z,88.14
2017-11-26T21:14:42.789Z,88.42
2017-11-26T21:17:12.800Z,89.01
2017-11-26T21:19:41.858Z,88.54
2017-11-26T21:22:10.908Z,88.06
2017-11-26T21:24:40.107Z,87.55
2017-11-26T21:27:09.141Z,87.28
2017-11-26T21:29:38.272Z,87.10
2017-11-26T21:32:07.299Z,87.19
2017-11-26T21:34:36.328Z,86.72
2017-11-26T21:37:05.376Z,86.15
2017-11-26T21:39:34.420Z,86.24
2017-11-26T21:42:03.452Z,86.36
2017-11-26T21:44:32.494Z,85.96
2017-11-26T21:47:01.551Z,85.29
2017-11-26T21:52:06.887Z,85.95
2017-11-26T21:54:36.865Z,85.68
2017-11-26T21:57:09.531Z,86.06
2017-11-26T21:59:45.299Z,85.08
2017-11-26T22:02:14.584Z,85.90
2017-11-26T22:04:43.624Z,85.51
2017-11-26T22:07:12.655Z,85.84
2017-11-26T22:09:41.694Z,86.20
2017-11-26T22:12:10.719Z,85.98
2017-11-26T22:14:39.880Z,85.89
2017-11-26T22:17:08.887Z,86.03
2017-11-26T22:19:37.995Z,85.77
2017-11-26T22:22:07.037Z,85.52
2017-11-26T22:24:36.578Z,85.08
2017-11-26T22:27:05.698Z,85.47
2017-11-26T22:29:34.731Z,85.79
2017-11-26T22:32:03.779Z,85.49
2017-11-26T22:34:33.823Z,85.78
2017-11-26T22:37:06.630Z,85.20
2017-11-26T22:39:35.803Z,85.08
2017-11-26T22:42:05.003Z,85.56
2017-11-26T22:44:35.961Z,85.15
2017-11-26T22:47:11.624Z,85.79
2017-11-26T22:49:40.816Z,86.00
2017-11-26T22:52:09.897Z,86.35
2017-11-26T22:54:38.911Z,86.17
2017-11-26T22:57:07.971Z,86.51
2017-11-26T22:59:38.019Z,86.62
2017-11-26T23:02:07.051Z,86.58
2017-11-26T23:04:45.028Z,86.61
2017-11-26T23:07:14.069Z,86.68
2017-11-26T23:09:43.141Z,86.70
2017-11-26T23:12:12.195Z,86.85
2017-11-26T23:17:19.035Z,87.08
2017-11-26T23:19:50.066Z,87.38
2017-11-26T23:22:19.143Z,87.61
2017-11-26T23:24:48.167Z,87.46
2017-11-26T23:27:17.196Z,87.43
2017-11-26T23:29:48.200Z,87.50
2017-11-26T23:32:17.229Z,87.89
2017-11-26T23:34:46.304Z,87.48
2017-11-26T23:37:15.331Z,87.27
2017-11-26T23:39:44.424Z,87.15
2017-11-26T23:42:13.470Z,87.27
2017-11-26T23:44:42.502Z,87.38
2017-11-26T23:47:11.577Z,87.57
2017-11-26T23:49:40.603Z,87.36
2017-11-26T23:52:09.714Z,87.25
2017-11-26T23:54:39.716Z,87.66
2017-11-26T23:57:08.752Z,87.70
2017-11-26T23:59:38.739Z,87.66
